Time;durP1;ratioP1;P1;durP2;ratioP2;P2;SDS_P1;SDS_P2;PMS_P1;PMS_P2;Temp;Humidity;BMP_temperature;BMP_pressure;BME280_temperature;BME280_humidity;BME280_pressure;Samples;Min_cycle;Max_cycle;Signal;HPM_P1;HPM_P2
2023/07/24 00:00:45;;;;;;;6.40;5.20;;;;;;;20.72;67.28;99840.21;106742;1259;97807;-81
2023/07/24 00:03:31;;;;;;;7.10;5.80;;;;;;;20.73;67.46;99836.73;106536;1257;96988;-81
2023/07/24 00:06:16;;;;;;;8.80;5.40;;;;;;;20.70;67.24;99835.15;106547;1260;97763;-80
2023/07/24 00:09:02;;;;;;;6.50;5.30;;;;;;;20.70;67.44;99833.94;106473;1254;100118;-81
2023/07/24 00:11:48;;;;;;;6.50;5.70;;;;;;;20.70;67.49;99836.29;106583;1254;100684;-78
2023/07/24 00:14:33;;;;;;;7.50;5.80;;;;;;;20.68;67.57;99835.14;106228;1254;97725;-80
2023/07/24 00:17:18;;;;;;;6.70;5.70;;;;;;;20.67;67.63;99832.27;106308;1259;96625;-80
2023/07/24 00:20:05;;;;;;;10.40;5.80;;;;;;;20.65;67.74;99829.70;106262;1256;96553;-80
2023/07/24 00:22:51;;;;;;;7.40;5.70;;;;;;;20.65;67.85;99832.16;106281;1256;101202;-80
2023/07/24 00:25:37;;;;;;;6.50;5.70;;;;;;;20.65;67.93;99830.25;105803;1257;99153;-80
2023/07/24 00:28:23;;;;;;;8.90;5.60;;;;;;;20.66;68.12;99833.13;105801;1257;98192;-80
2023/07/24 00:31:08;;;;;;;8.90;5.90;;;;;;;20.66;67.84;99836.45;106320;1257;97094;-81
2023/07/24 00:33:55;;;;;;;6.60;5.40;;;;;;;20.65;67.57;99841.84;106304;1256;97059;-81
2023/07/24 00:36:40;;;;;;;7.30;5.40;;;;;;;20.65;67.42;99845.92;106537;1257;100040;-81
2023/07/24 00:39:28;;;;;;;9.80;6.10;;;;;;;20.63;67.07;99844.39;106445;1256;99162;-81
2023/07/24 00:42:14;;;;;;;7.20;5.50;;;;;;;20.62;66.70;99848.70;106474;1254;97775;-81
2023/07/24 00:44:59;;;;;;;6.00;5.30;;;;;;;20.59;66.22;99849.45;106513;1256;96581;-82
2023/07/24 00:47:45;;;;;;;7.50;5.10;;;;;;;20.56;66.14;99846.34;106501;1256;96521;-81
2023/07/24 00:50:31;;;;;;;7.90;5.80;;;;;;;20.53;66.04;99849.23;106499;1257;101302;-80
2023/07/24 00:53:18;;;;;;;8.80;4.90;;;;;;;20.50;65.73;99847.20;106376;1256;99146;-81
2023/07/24 00:56:05;;;;;;;7.80;5.30;;;;;;;20.48;65.58;99848.40;106479;1256;97761;-81
2023/07/24 00:58:51;;;;;;;8.50;5.90;;;;;;;20.47;65.65;99851.08;106595;1253;96615;-81
2023/07/24 01:01:39;;;;;;;10.20;5.60;;;;;;;20.46;65.91;99849.11;106488;1256;96649;-81
2023/07/24 01:04:25;;;;;;;6.60;5.10;;;;;;;20.46;65.90;99848.40;106562;1253;100028;-81
2023/07/24 01:07:11;;;;;;;10.60;5.50;;;;;;;20.46;65.56;99850.02;106602;1254;100488;-81
2023/07/24 01:09:57;;;;;;;10.20;5.70;;;;;;;20.46;65.36;99848.83;106562;1257;97859;-81
2023/07/24 01:12:51;;;;;;;7.10;5.20;;;;;;;20.47;65.23;99846.33;106520;1256;96535;-81
2023/07/24 01:15:48;;;;;;;10.90;6.10;;;;;;;20.48;64.89;99849.38;106471;1254;98270;-81
2023/07/24 01:18:36;;;;;;;8.40;5.50;;;;;;;20.48;64.61;99843.29;106455;1256;101437;-81
2023/07/24 01:21:42;;;;;;;9.30;5.20;;;;;;;20.50;64.24;99844.33;106601;1255;99960;-81
2023/07/24 01:25:05;;;;;;;7.50;5.00;;;;;;;20.52;64.25;99839.16;106536;1256;98284;-80
2023/07/24 01:27:50;;;;;;;8.20;4.90;;;;;;;20.55;63.96;99839.76;106382;1260;96482;-81
2023/07/24 01:30:36;;;;;;;9.90;5.60;;;;;;;20.58;63.60;99838.29;106553;1256;96658;-81
2023/07/24 01:33:22;;;;;;;7.10;5.40;;;;;;;20.58;63.45;99836.39;106583;1255;100230;-81
2023/07/24 01:36:09;;;;;;;5.10;4.60;;;;;;;20.58;63.21;99836.77;106426;1256;100131;-82
2023/07/24 01:38:55;;;;;;;8.10;4.60;;;;;;;20.59;62.90;99829.76;106504;1259;97956;-81
2023/07/24 01:41:42;;;;;;;8.60;5.00;;;;;;;20.60;62.97;99829.32;106459;1259;97075;-81
2023/07/24 01:44:27;;;;;;;10.80;4.60;;;;;;;20.62;62.65;99830.09;107549;1254;96511;-82
2023/07/24 01:47:13;;;;;;;5.80;4.30;;;;;;;20.62;62.25;99832.10;106495;1256;100064;-82
2023/07/24 01:49:58;;;;;;;8.30;5.30;;;;;;;20.62;61.82;99833.30;106545;1270;108019;-82
2023/07/24 01:52:45;;;;;;;7.20;4.60;;;;;;;20.62;61.52;99838.02;106666;1254;97732;-81
2023/07/24 01:55:31;;;;;;;6.90;4.30;;;;;;;20.63;61.28;99834.16;106715;1257;96692;-82
2023/07/24 01:58:16;;;;;;;6.40;5.00;;;;;;;20.63;60.87;99835.26;106359;1257;97182;-82
2023/07/24 02:01:02;;;;;;;6.40;4.60;;;;;;;20.64;60.32;99835.04;106536;1253;99966;-82
2023/07/24 02:03:47;;;;;;;11.10;4.30;;;;;;;20.66;59.92;99836.77;106585;1257;99206;-82
2023/07/24 02:06:33;;;;;;;7.50;4.50;;;;;;;20.69;59.84;99837.76;106626;1255;97776;-81
2023/07/24 02:09:18;;;;;;;8.30;4.00;;;;;;;20.71;59.38;99835.80;106541;1257;96652;-82
2023/07/24 02:12:05;;;;;;;6.30;3.90;;;;;;;20.74;59.19;99838.52;106690;1254;96654;-82
2023/07/24 02:14:51;;;;;;;10.00;5.20;;;;;;;20.77;58.92;99829.44;106531;1257;100015;-81
2023/07/24 02:17:37;;;;;;;9.50;3.70;;;;;;;20.80;58.62;99824.31;106531;1254;99273;-82
2023/07/24 02:20:22;;;;;;;8.60;5.30;;;;;;;20.81;58.54;99819.54;106359;1260;98982;-82
2023/07/24 02:23:08;;;;;;;9.60;4.60;;;;;;;20.82;58.30;99819.96;106478;1256;96666;-80
2023/07/24 02:25:54;;;;;;;9.40;5.20;;;;;;;20.84;58.24;99815.55;106710;1256;97785;-81
2023/07/24 02:28:39;;;;;;;6.20;3.50;;;;;;;20.84;58.35;99819.68;106605;1256;99940;-81
2023/07/24 02:31:25;;;;;;;7.30;4.10;;;;;;;20.83;57.94;99822.03;106443;1255;99060;-81
2023/07/24 02:34:11;;;;;;;7.80;4.20;;;;;;;20.83;57.77;99821.88;106470;1259;98593;-81
2023/07/24 02:36:59;;;;;;;7.20;4.70;;;;;;;20.83;57.42;99821.55;106737;1253;97426;-81
2023/07/24 02:39:46;;;;;;;5.20;3.50;;;;;;;20.82;57.47;99820.19;106549;1254;96610;-80
2023/07/24 02:42:31;;;;;;;5.80;4.00;;;;;;;20.83;57.44;99821.71;106572;1259;99972;-82
2023/07/24 02:45:16;;;;;;;5.90;3.50;;;;;;;20.83;57.49;99824.65;106537;1257;99381;-80
2023/07/24 02:48:02;;;;;;;6.30;3.60;;;;;;;20.83;57.51;99822.15;106503;1253;99082;-81
2023/07/24 02:50:49;;;;;;;5.90;4.00;;;;;;;20.82;57.42;99828.41;106550;1254;96680;-80
2023/07/24 02:53:34;;;;;;;6.60;3.60;;;;;;;20.81;57.21;99832.00;106339;1257;96609;-81
2023/07/24 02:56:20;;;;;;;7.60;3.10;;;;;;;20.81;57.21;99829.01;106603;1256;100061;-80
2023/07/24 02:59:05;;;;;;;6.80;3.20;;;;;;;20.79;57.37;99829.33;106526;1253;99826;-80
2023/07/24 03:01:51;;;;;;;6.80;3.60;;;;;;;20.77;57.22;99829.71;106209;1256;97719;-81
2023/07/24 03:04:36;;;;;;;6.90;2.90;;;;;;;20.75;57.11;99831.18;106527;1257;96591;-81
2023/07/24 03:07:22;;;;;;;7.60;3.70;;;;;;;20.75;56.97;99830.14;106520;1254;97016;-80
2023/07/24 03:10:07;;;;;;;5.90;3.40;;;;;;;20.73;56.90;99826.71;106406;1257;99989;-81
2023/07/24 03:12:53;;;;;;;6.80;3.50;;;;;;;20.72;57.00;99834.13;106399;1259;99206;-81
2023/07/24 03:15:39;;;;;;;4.90;2.90;;;;;;;20.71;57.06;99834.50;106287;1259;98364;-80
2023/07/24 03:18:25;;;;;;;4.10;3.10;;;;;;;20.69;57.32;99832.80;106500;1259;96613;-80
2023/07/24 03:21:10;;;;;;;5.20;2.80;;;;;;;20.68;57.14;99834.12;106447;1256;97036;-81
2023/07/24 03:23:56;;;;;;;6.40;3.00;;;;;;;20.67;57.37;99837.33;106426;1258;101361;-80
2023/07/24 03:26:41;;;;;;;4.80;3.20;;;;;;;20.66;57.30;99838.73;106478;1259;100648;-81
2023/07/24 03:29:27;;;;;;;4.40;3.00;;;;;;;20.64;57.42;99836.88;106432;1256;106364;-81
2023/07/24 03:32:14;;;;;;;5.90;3.00;;;;;;;20.64;57.31;99836.67;106743;1259;96528;-81
2023/07/24 03:34:59;;;;;;;4.70;3.00;;;;;;;20.63;57.19;99839.01;106543;1259;97588;-81
2023/07/24 03:37:45;;;;;;;4.80;2.70;;;;;;;20.61;57.19;99835.69;106516;1256;99991;-81
2023/07/24 03:40:31;;;;;;;4.50;3.00;;;;;;;20.60;57.22;99831.86;106425;1257;99085;-81
2023/07/24 03:43:17;;;;;;;7.10;2.80;;;;;;;20.60;57.31;99835.79;106545;1256;99029;-80
2023/07/24 03:46:03;;;;;;;3.90;2.90;;;;;;;20.58;57.26;99837.26;106615;1257;97801;-81
2023/07/24 03:48:50;;;;;;;6.00;2.70;;;;;;;20.58;57.24;99836.98;106613;1259;97217;-81
2023/07/24 03:51:36;;;;;;;3.60;2.70;;;;;;;20.58;57.31;99834.70;106433;1256;101412;-81
2023/07/24 03:54:21;;;;;;;4.30;3.20;;;;;;;20.56;57.45;99833.73;106547;1259;99843;-81
2023/07/24 03:57:07;;;;;;;3.80;2.80;;;;;;;20.56;57.40;99833.02;106434;1259;97805;-81
2023/07/24 03:59:52;;;;;;;4.70;3.30;;;;;;;20.57;57.67;99838.51;106435;1256;97129;-81
2023/07/24 04:02:39;;;;;;;4.40;2.40;;;;;;;20.58;57.88;99842.92;106439;1256;96539;-81
2023/07/24 04:05:26;;;;;;;5.10;2.70;;;;;;;20.59;58.09;99842.38;106470;1259;101168;-81
2023/07/24 04:08:11;;;;;;;5.90;3.20;;;;;;;20.60;58.17;99846.20;108545;1255;100142;-82
2023/07/24 04:10:57;;;;;;;4.00;2.80;;;;;;;20.64;58.70;99847.02;106771;1255;98882;-81
2023/07/24 04:13:43;;;;;;;6.10;3.30;;;;;;;20.67;58.96;99849.09;106385;1259;96524;-82
2023/07/24 04:16:28;;;;;;;4.80;3.30;;;;;;;20.70;58.91;99855.17;106366;1255;97155;-81
2023/07/24 04:19:13;;;;;;;3.70;2.80;;;;;;;20.71;58.97;99852.14;106446;1258;100032;-82
2023/07/24 04:21:59;;;;;;;5.00;3.00;;;;;;;20.71;59.08;99850.73;106357;1255;99317;-80
2023/07/24 04:24:44;;;;;;;4.90;3.10;;;;;;;20.72;59.07;99849.04;106472;1255;98401;-81
2023/07/24 04:27:30;;;;;;;7.60;3.10;;;;;;;20.72;58.99;99846.73;106700;1256;96781;-80
2023/07/24 04:30:16;;;;;;;5.40;3.30;;;;;;;20.73;58.95;99846.41;106535;1260;96897;-81
2023/07/24 04:33:02;;;;;;;7.00;3.20;;;;;;;20.75;59.07;99850.67;106543;1256;100841;-80
2023/07/24 04:35:49;;;;;;;5.10;3.50;;;;;;;20.76;59.21;99852.63;106417;1256;99122;-80
2023/07/24 04:38:34;;;;;;;5.70;3.20;;;;;;;20.77;59.29;99851.10;106568;1256;99186;-80
2023/07/24 04:41:20;;;;;;;4.10;3.40;;;;;;;20.81;59.65;99852.73;106581;1256;96768;-81
2023/07/24 04:44:05;;;;;;;5.00;2.90;;;;;;;20.82;59.67;99854.92;106576;1259;96402;-82
2023/07/24 04:46:51;;;;;;;4.10;3.20;;;;;;;20.84;59.90;99854.85;106708;1253;100034;-81
2023/07/24 04:49:36;;;;;;;5.20;3.50;;;;;;;20.88;59.94;99856.66;106703;1259;109840;-81
2023/07/24 04:52:22;;;;;;;4.20;3.00;;;;;;;20.92;60.17;99856.34;106493;1259;97836;-81
2023/07/24 04:55:08;;;;;;;4.80;3.60;;;;;;;20.96;60.04;99854.21;106667;1253;96610;-81
2023/07/24 04:57:53;;;;;;;7.00;3.90;;;;;;;20.99;60.17;99858.02;106535;1256;96584;-80
2023/07/24 05:00:38;;;;;;;4.30;3.10;;;;;;;21.00;60.09;99861.08;106580;1258;101421;-81
2023/07/24 05:03:24;;;;;;;9.30;3.50;;;;;;;21.00;59.93;99861.95;106374;1259;100068;-82
2023/07/24 05:06:09;;;;;;;5.10;3.20;;;;;;;20.99;59.93;99856.66;106550;1256;99000;-82
2023/07/24 05:08:55;;;;;;;5.70;3.10;;;;;;;21.01;60.11;99855.48;106467;1259;96619;-82
2023/07/24 05:11:44;;;;;;;4.40;3.00;;;;;;;21.03;60.05;99852.23;106529;1256;97215;-82
2023/07/24 05:14:29;;;;;;;6.90;3.60;;;;;;;21.02;59.82;99853.77;106550;1259;101306;-82
2023/07/24 05:17:15;;;;;;;7.50;3.70;;;;;;;21.02;59.96;99850.24;106472;1256;99697;-83
2023/07/24 05:20:01;;;;;;;6.40;3.10;;;;;;;21.03;59.64;99858.05;106408;1256;97740;-82
2023/07/24 05:22:46;;;;;;;6.30;3.20;;;;;;;21.04;59.71;99855.17;106671;1257;96689;-81
2023/07/24 05:25:31;;;;;;;7.80;4.30;;;;;;;21.04;59.99;99857.79;106319;1256;97015;-81
2023/07/24 05:28:17;;;;;;;5.10;3.80;;;;;;;21.06;60.00;99861.60;106294;1256;100079;-80
2023/07/24 05:31:03;;;;;;;6.50;3.30;;;;;;;21.09;60.15;99867.05;106554;1256;100155;-81
2023/07/24 05:33:49;;;;;;;10.10;4.20;;;;;;;21.12;60.30;99873.73;106769;1260;98534;-81
2023/07/24 05:36:34;;;;;;;6.40;3.80;;;;;;;21.15;60.19;99876.51;106467;1256;96611;-81
2023/07/24 05:39:20;;;;;;;6.20;3.40;;;;;;;21.17;60.17;99878.96;106338;1256;96661;-82
2023/07/24 05:42:06;;;;;;;6.10;4.30;;;;;;;21.17;60.65;99878.14;106362;1257;101522;-82
2023/07/24 05:44:52;;;;;;;7.70;3.80;;;;;;;21.16;61.06;99879.40;106429;1258;100074;-81
2023/07/24 05:47:37;;;;;;;6.80;3.90;;;;;;;21.14;61.36;99884.20;106407;1256;97751;-81
2023/07/24 05:50:23;;;;;;;9.00;3.90;;;;;;;21.14;61.65;99886.42;106685;1256;97477;-82
2023/07/24 05:53:08;;;;;;;5.90;3.90;;;;;;;21.14;61.37;99885.55;106476;1258;96489;-80
2023/07/24 05:55:59;;;;;;;5.90;3.70;;;;;;;21.15;61.11;99878.86;106503;1259;100108;-81
2023/07/24 05:58:45;;;;;;;;;;;;;;;21.19;61.24;99877.48;106655;1256;100048;-81
2023/07/24 06:01:30;;;;;;;4.10;3.60;;;;;;;21.19;61.27;99878.10;106523;1257;99036;-81
2023/07/24 06:04:16;;;;;;;8.50;3.90;;;;;;;21.21;61.13;99883.43;106592;1256;96616;-82
2023/07/24 06:07:02;;;;;;;4.00;3.50;;;;;;;21.24;61.26;99879.89;106512;1255;96529;-81
2023/07/24 06:09:47;;;;;;;9.80;3.50;;;;;;;21.30;61.18;99873.08;106662;1259;101421;-82
2023/07/24 06:12:32;;;;;;;9.40;4.00;;;;;;;21.33;60.90;99866.36;106668;1257;99091;-81
2023/07/24 06:15:18;;;;;;;7.40;4.20;;;;;;;21.38;61.09;99882.33;106311;1256;98500;-81
2023/07/24 06:18:04;;;;;;;3.90;3.30;;;;;;;21.47;60.92;99883.94;106435;1256;96588;-81
2023/07/24 06:20:54;;;;;;;8.40;3.20;;;;;;;21.55;60.51;99886.11;106598;1256;98160;-81
2023/07/24 06:23:39;;;;;;;6.00;3.30;;;;;;;21.62;60.44;99881.73;106496;1256;100203;-81
2023/07/24 06:26:25;;;;;;;4.80;3.20;;;;;;;21.66;60.12;99884.89;106484;1257;99175;-81
2023/07/24 06:29:11;;;;;;;3.50;2.90;;;;;;;21.70;59.84;99872.83;106475;1259;97743;-82
2023/07/24 06:31:56;;;;;;;6.80;3.20;;;;;;;21.73;59.90;99863.50;106504;1256;97428;-82
2023/07/24 06:34:42;;;;;;;5.10;2.60;;;;;;;21.79;60.06;99866.27;106361;1254;96832;-87
2023/07/24 06:37:28;;;;;;;6.30;3.10;;;;;;;21.87;59.68;99872.10;106145;1259;108749;-85
2023/07/24 06:40:14;;;;;;;7.00;3.00;;;;;;;21.94;59.65;99871.36;106341;1257;99813;-88
2023/07/24 06:42:59;;;;;;;6.70;3.30;;;;;;;22.04;59.55;99874.11;106407;1256;100100;-85
2023/07/24 06:45:45;;;;;;;6.10;2.60;;;;;;;22.11;59.15;99872.16;106337;1260;96610;-86
2023/07/24 06:48:32;;;;;;;4.50;2.90;;;;;;;22.18;59.13;99867.11;106562;1258;96383;-89
2023/07/24 06:51:18;;;;;;;5.00;3.00;;;;;;;22.27;59.22;99862.70;106327;1257;101240;-91
2023/07/24 06:54:05;;;;;;;4.10;2.70;;;;;;;22.40;59.19;99857.29;106706;1255;99589;-92
2023/07/24 06:56:52;;;;;;;5.90;2.90;;;;;;;22.49;58.77;99849.70;106362;1256;97851;-86
2023/07/24 06:59:39;;;;;;;8.60;3.00;;;;;;;22.58;58.80;99851.24;106777;1255;96605;-91
2023/07/24 07:02:25;;;;;;;4.30;2.80;;;;;;;22.67;58.67;99850.38;107054;1262;95988;-91
2023/07/24 07:05:17;;;;;;;4.40;2.70;;;;;;;22.82;58.63;99847.98;107550;1253;101147;-92
2023/07/24 07:08:04;;;;;;;5.40;2.90;;;;;;;22.93;58.45;99844.44;106452;1259;100411;-91
2023/07/24 07:10:58;;;;;;;3.90;3.00;;;;;;;22.99;58.10;99835.98;106351;1256;98776;-84
2023/07/24 07:13:44;;;;;;;3.20;2.70;;;;;;;23.03;57.53;99841.23;106405;1256;96594;-90
2023/07/24 07:16:30;;;;;;;4.30;2.90;;;;;;;23.05;57.25;99842.38;106375;1256;96500;-88
2023/07/24 07:19:16;;;;;;;4.30;2.60;;;;;;;23.08;57.08;99841.02;106156;1256;100046;-84
2023/07/24 07:22:01;;;;;;;3.80;2.80;;;;;;;23.12;57.01;99841.70;106154;1255;99403;-83
2023/07/24 07:24:47;;;;;;;4.40;2.80;;;;;;;23.13;56.53;99843.65;105940;1256;97728;-83
2023/07/24 07:27:32;;;;;;;5.70;3.10;;;;;;;23.13;56.04;99843.45;107993;1254;96605;-84
2023/07/24 07:30:18;;;;;;;5.60;3.30;;;;;;;23.15;56.23;99843.70;107054;1255;96829;-79
2023/07/24 07:33:05;;;;;;;6.20;2.90;;;;;;;23.18;56.14;99842.41;106276;1258;100013;-80
2023/07/24 07:35:51;;;;;;;3.80;2.60;;;;;;;23.18;55.67;99842.67;105635;1259;100260;-84
2023/07/24 07:38:39;;;;;;;4.10;2.30;;;;;;;23.20;55.88;99847.87;106128;1256;97723;-80
2023/07/24 07:41:25;;;;;;;6.70;3.20;;;;;;;23.21;55.95;99847.80;106194;1256;96617;-80
2023/07/24 07:44:10;;;;;;;6.90;2.60;;;;;;;23.23;55.84;99847.67;106099;1259;96718;-80
2023/07/24 07:46:56;;;;;;;6.60;3.30;;;;;;;23.25;55.84;99846.23;105280;1253;100103;-79
2023/07/24 07:49:42;;;;;;;5.30;3.00;;;;;;;23.26;55.74;99845.11;105627;1256;101077;-79
2023/07/24 07:52:27;;;;;;;3.90;2.40;;;;;;;23.28;55.82;99850.42;105606;1259;98718;-80
2023/07/24 07:55:13;;;;;;;3.80;3.10;;;;;;;23.29;55.46;99850.35;105559;1253;96618;-79
2023/07/24 07:57:58;;;;;;;4.30;2.80;;;;;;;23.30;55.75;99848.27;105599;1257;97128;-79
2023/07/24 08:00:44;;;;;;;6.60;2.70;;;;;;;23.32;55.39;99850.77;106355;1257;101288;-79
2023/07/24 08:03:30;;;;;;;4.40;2.90;;;;;;;23.37;55.90;99848.05;105749;1256;99074;-79
2023/07/24 08:06:15;;;;;;;4.80;2.80;;;;;;;23.46;55.83;99850.36;105737;1259;98453;-79
2023/07/24 08:09:01;;;;;;;4.10;3.20;;;;;;;23.56;55.91;99853.44;105821;1256;97890;-79
2023/07/24 08:11:46;;;;;;;3.30;2.90;;;;;;;23.63;56.00;99846.77;106098;1259;97146;-79
2023/07/24 08:14:32;;;;;;;4.80;2.60;;;;;;;23.72;56.30;99841.33;105977;1257;100572;-79
2023/07/24 08:17:17;;;;;;;6.30;3.10;;;;;;;23.78;55.50;99837.60;106010;1259;99199;-79
2023/07/24 08:20:03;;;;;;;3.10;2.20;;;;;;;23.81;55.26;99834.72;105847;1259;97841;-79
2023/07/24 08:22:49;;;;;;;4.00;2.00;;;;;;;23.83;54.88;99835.08;105869;1257;96609;-79
2023/07/24 08:25:35;;;;;;;4.50;2.40;;;;;;;23.85;54.44;99836.36;105607;1258;97891;-79
2023/07/24 08:28:21;;;;;;;5.90;2.80;;;;;;;23.89;54.64;99835.29;105987;1256;101250;-78
2023/07/24 08:31:06;;;;;;;4.60;3.00;;;;;;;23.94;54.58;99837.02;105930;1253;99867;-79
2023/07/24 08:33:52;;;;;;;4.70;2.70;;;;;;;23.99;53.88;99835.00;105963;1257;98527;-79
2023/07/24 08:36:38;;;;;;;3.80;2.50;;;;;;;24.04;54.14;99832.98;106613;1259;96614;-80
2023/07/24 08:39:23;;;;;;;5.80;2.70;;;;;;;24.09;53.78;99835.55;106115;1256;97898;-80
2023/07/24 08:42:13;;;;;;;5.40;2.40;;;;;;;24.10;53.62;99828.96;106078;1260;108715;-80
2023/07/24 08:44:58;;;;;;;4.30;3.00;;;;;;;24.10;53.61;99830.13;105935;1259;99282;-80
2023/07/24 08:47:44;;;;;;;4.90;2.30;;;;;;;24.14;54.17;99829.85;106139;1256;97779;-80
2023/07/24 08:50:31;;;;;;;3.90;2.30;;;;;;;24.24;54.54;99820.39;106106;1258;96429;-79
2023/07/24 08:53:18;;;;;;;2.30;2.10;;;;;;;24.34;54.24;99812.21;106067;1255;96540;-80
2023/07/24 08:56:05;;;;;;;7.60;2.50;;;;;;;24.44;54.13;99807.17;106164;1258;100063;-79
2023/07/24 08:58:51;;;;;;;4.30;2.50;;;;;;;24.52;53.78;99805.36;106160;1259;99139;-82
2023/07/24 09:01:37;;;;;;;2.80;2.30;;;;;;;24.60;53.56;99808.20;106209;1256;97722;-90
2023/07/24 09:04:24;;;;;;;2.40;2.00;;;;;;;24.71;53.06;99804.14;106415;1262;96675;-83
2023/07/24 09:07:11;;;;;;;2.50;2.20;;;;;;;24.88;52.83;99802.80;106055;1256;97926;-81
2023/07/24 09:09:57;;;;;;;5.50;2.20;;;;;;;25.02;52.37;99809.66;106495;1257;101271;-82
2023/07/24 09:12:42;;;;;;;4.30;1.70;;;;;;;25.10;52.39;99808.77;106413;1257;100393;-82
2023/07/24 09:15:28;;;;;;;3.90;2.60;;;;;;;25.16;52.68;99809.58;106707;1259;97732;-81
2023/07/24 09:18:15;;;;;;;4.00;2.10;;;;;;;25.21;52.23;99808.45;106419;1261;96678;-84
2023/07/24 09:21:01;;;;;;;2.10;1.70;;;;;;;25.25;52.39;99805.92;106421;1256;96402;-87
2023/07/24 09:23:47;;;;;;;3.90;1.90;;;;;;;25.29;52.27;99798.94;106209;1256;100640;-85
2023/07/24 09:26:32;;;;;;;2.30;1.60;;;;;;;25.33;51.59;99795.80;106094;1259;99198;-83
2023/07/24 09:29:20;;;;;;;2.40;1.50;;;;;;;25.36;51.01;99786.89;106188;1261;97886;-85
2023/07/24 09:32:07;;;;;;;2.30;1.80;;;;;;;25.40;50.83;99776.73;106083;1257;97043;-86
2023/07/24 09:34:54;;;;;;;5.00;2.10;;;;;;;25.50;51.63;99771.40;106285;1259;96994;-84
2023/07/24 09:37:39;;;;;;;5.00;1.80;;;;;;;25.65;51.77;99771.25;106149;1257;100004;-88
2023/07/24 09:40:25;;;;;;;5.60;2.00;;;;;;;25.80;50.81;99770.66;106089;1256;100417;-84
2023/07/24 09:43:27;;;;;;;4.50;2.40;;;;;;;25.88;50.69;99759.96;106460;1256;97833;-84
2023/07/24 09:46:13;;;;;;;3.60;2.10;;;;;;;25.91;50.81;99753.73;106637;1253;96613;-83
2023/07/24 09:48:59;;;;;;;3.20;2.10;;;;;;;25.95;50.52;99746.58;106850;1255;96695;-86
2023/07/24 09:51:50;;;;;;;3.60;2.30;;;;;;;26.08;50.57;99742.36;106206;1262;101361;-85
2023/07/24 09:54:46;;;;;;;2.70;2.30;;;;;;;26.24;49.96;99740.29;106128;1259;110493;-81
2023/07/24 09:57:32;;;;;;;4.50;2.20;;;;;;;26.32;49.37;99736.31;106068;1259;99060;-87
2023/07/24 10:00:18;;;;;;;5.60;2.60;;;;;;;26.41;49.70;99724.94;106338;1257;96508;-86
2023/07/24 10:03:04;;;;;;;7.80;3.20;;;;;;;26.47;49.60;99721.05;106145;1262;96540;-79
2023/07/24 10:05:50;;;;;;;4.00;3.40;;;;;;;26.49;48.86;99725.04;106448;1257;100129;-81
2023/07/24 10:08:36;;;;;;;4.90;2.90;;;;;;;26.47;48.81;99727.23;106203;1256;100363;-84
2023/07/24 10:11:22;;;;;;;5.10;3.20;;;;;;;26.49;48.62;99727.27;106151;1259;99199;-82
2023/07/24 10:14:10;;;;;;;3.50;2.80;;;;;;;26.49;48.48;99714.21;106522;1259;96620;-83
2023/07/24 10:16:56;;;;;;;3.10;2.80;;;;;;;26.51;48.61;99713.06;106193;1257;96499;-82
2023/07/24 10:19:43;;;;;;;2.50;2.20;;;;;;;26.58;49.04;99710.52;106264;1256;100926;-82
2023/07/24 10:22:29;;;;;;;7.00;2.60;;;;;;;26.68;48.55;99706.41;106253;1256;99090;-83
2023/07/24 10:25:14;;;;;;;3.30;2.10;;;;;;;26.75;48.22;99704.44;106214;1259;97862;-84
2023/07/24 10:28:10;;;;;;;2.40;2.10;;;;;;;26.77;48.20;99703.13;106559;1256;96450;-80
2023/07/24 10:30:56;;;;;;;3.20;2.50;;;;;;;26.77;48.05;99695.13;106222;1259;96504;-82
2023/07/24 10:33:45;;;;;;;5.90;2.80;;;;;;;26.80;48.06;99689.64;106322;1259;101685;-83
2023/07/24 10:36:34;;;;;;;5.80;2.90;;;;;;;26.84;47.93;99683.78;106485;1257;99167;-83
2023/07/24 10:39:20;;;;;;;6.00;2.60;;;;;;;26.91;48.02;99677.64;106235;1256;97703;-83
2023/07/24 10:42:08;;;;;;;4.60;2.60;;;;;;;27.05;47.54;99668.36;106548;1256;95891;-82
2023/07/24 10:45:05;;;;;;;3.90;2.70;;;;;;;27.18;47.38;99665.58;106369;1259;97063;-83
2023/07/24 10:47:51;;;;;;;4.70;2.50;;;;;;;27.30;46.34;99658.60;106352;1257;101104;-83
2023/07/24 10:50:45;;;;;;;3.20;2.70;;;;;;;27.38;45.73;99658.42;106190;1257;99258;-82
2023/07/24 10:53:30;;;;;;;5.10;2.60;;;;;;;27.38;45.15;99659.98;106643;1259;98959;-82
2023/07/24 10:56:17;;;;;;;4.20;2.60;;;;;;;27.39;44.75;99659.25;106444;1256;97760;-82
2023/07/24 10:59:04;;;;;;;4.50;2.50;;;;;;;27.44;44.29;99653.65;106556;1254;98294;-84
2023/07/24 11:01:52;;;;;;;3.60;2.90;;;;;;;27.53;44.50;99646.00;106452;1256;100961;-87
2023/07/24 11:04:39;;;;;;;4.80;2.40;;;;;;;27.59;44.27;99637.78;106493;1261;99188;-88
2023/07/24 11:07:35;;;;;;;5.70;2.50;;;;;;;27.58;43.77;99633.39;107052;1256;97977;-93
2023/07/24 11:10:22;;;;;;;2.90;2.20;;;;;;;27.53;43.85;99629.23;106309;1254;96678;-85
2023/07/24 11:13:10;;;;;;;6.00;2.90;;;;;;;27.57;43.64;99627.62;106670;1257;97173;-85
2023/07/24 11:15:56;;;;;;;4.90;2.70;;;;;;;27.69;43.74;99627.02;106385;1257;100072;-88
2023/07/24 11:18:47;;;;;;;7.00;3.00;;;;;;;27.77;43.61;99625.44;106091;1262;99864;-87
2023/07/24 11:21:36;;;;;;;3.30;2.60;;;;;;;27.84;43.30;99619.13;106472;1261;99003;-87
2023/07/24 11:24:22;;;;;;;3.20;2.60;;;;;;;27.88;43.10;99607.30;106343;1256;96693;-91
2023/07/24 11:27:12;;;;;;;5.30;2.80;;;;;;;27.95;42.90;99605.11;106755;1259;97029;-87
2023/07/24 11:29:58;;;;;;;9.20;3.30;;;;;;;28.05;42.83;99607.71;106727;1262;102466;-88
2023/07/24 11:33:08;;;;;;;6.50;3.20;;;;;;;28.19;42.81;99606.73;106768;1259;99202;-92
2023/07/24 11:36:02;;;;;;;3.40;2.40;;;;;;;28.28;41.94;99608.22;107067;1259;97870;-89
2023/07/24 11:38:55;;;;;;;4.70;2.50;;;;;;;28.30;41.76;99608.74;106817;1255;97089;-92
2023/07/24 11:41:41;;;;;;;4.10;2.80;;;;;;;28.34;41.91;99607.41;107148;1259;96444;-84
2023/07/24 11:44:29;;;;;;;5.60;2.60;;;;;;;28.35;41.53;99605.61;106615;1257;101249;-84
2023/07/24 11:47:15;;;;;;;6.30;2.60;;;;;;;28.38;41.30;99599.06;106230;1256;99077;-88
2023/07/24 11:50:02;;;;;;;3.10;2.40;;;;;;;28.42;41.49;99596.90;106431;1259;97757;-84
2023/07/24 11:52:48;;;;;;;4.00;3.10;;;;;;;28.45;40.95;99594.97;106445;1256;96641;-85
2023/07/24 11:55:34;;;;;;;3.90;2.70;;;;;;;28.42;40.96;99594.90;107069;1259;96531;-81
2023/07/24 11:58:21;;;;;;;3.90;2.60;;;;;;;28.38;41.14;99595.47;107312;1253;100673;-82
2023/07/24 12:01:07;;;;;;;9.30;3.10;;;;;;;28.35;41.22;99588.15;108489;1253;100686;-81
2023/07/24 12:03:52;;;;;;;9.20;2.60;;;;;;;28.31;41.03;99580.61;108025;1255;97823;-81
2023/07/24 12:06:38;;;;;;;3.60;2.70;;;;;;;28.27;41.17;99577.67;107336;1259;96405;-81
2023/07/24 12:09:29;;;;;;;4.00;2.50;;;;;;;28.29;41.07;99571.61;107080;1259;96559;-81
2023/07/24 12:12:17;;;;;;;3.90;3.10;;;;;;;28.40;41.31;99572.73;106984;1257;100064;-81
2023/07/24 12:15:02;;;;;;;3.20;2.90;;;;;;;28.57;41.07;99569.23;107002;1256;100362;-82
2023/07/24 12:17:48;;;;;;;3.90;2.80;;;;;;;28.69;40.89;99563.59;106982;1258;98509;-82
2023/07/24 12:20:34;;;;;;;5.80;2.50;;;;;;;28.85;41.04;99561.55;107049;1254;96662;-81
2023/07/24 12:23:20;;;;;;;6.50;2.80;;;;;;;28.99;40.83;99555.52;107693;1254;96613;-82
2023/07/24 12:26:07;;;;;;;4.20;3.00;;;;;;;29.12;40.08;99548.06;107022;1259;100003;-82
2023/07/24 12:28:52;;;;;;;8.40;3.20;;;;;;;29.14;39.86;99552.02;106984;1258;99135;-82
2023/07/24 12:31:38;;;;;;;4.60;3.50;;;;;;;29.15;39.65;99539.46;106883;1258;97772;-81
2023/07/24 12:34:23;;;;;;;4.70;2.90;;;;;;;29.17;39.23;99535.86;106954;1254;96655;-81
2023/07/24 12:37:08;;;;;;;9.20;3.20;;;;;;;29.20;39.02;99542.57;106773;1257;96499;-81
2023/07/24 12:39:54;;;;;;;6.30;3.40;;;;;;;29.13;38.77;99538.98;106897;1257;100017;-82
2023/07/24 12:42:40;;;;;;;6.70;3.90;;;;;;;29.05;38.67;99536.64;107225;1257;99144;-82
2023/07/24 12:45:25;;;;;;;3.90;3.30;;;;;;;29.00;38.69;99536.82;107197;1256;99161;-82
2023/07/24 12:48:11;;;;;;;6.20;3.30;;;;;;;29.01;38.77;99538.02;106867;1257;97934;-80
2023/07/24 12:50:57;;;;;;;8.30;3.50;;;;;;;29.10;38.76;99534.52;106817;1259;95899;-82
2023/07/24 12:53:43;;;;;;;6.30;3.30;;;;;;;29.18;38.75;99531.08;106885;1259;100963;-81